<?xml version="1.0" encoding="UTF-8" standalone="no" ?>
<gpx xmlns="http://www.topografix.com/GPX/1/1" xmlns:xsi="http://www.w3.org/2001/XMLSchema-instance" xsi:schemaLocation="http://www.topografix.com/GPX/1/1 http://www.topografix.com/GPX/1/1/gpx.xsd" version="1.1" creator="VisuGPX - https://www.visugpx.com">
  <metadata>
    <name>J4 - Sainte Mere - Lectoure</name>
    <desc><![CDATA[Circuit Gers]]></desc>
  </metadata>
  <trk>
    <name><![CDATA[J4 - Sainte Mere - Lectoure]]></name>
    <trkseg>
      <trkpt lat="44.0044" lon="0.6701">
        <ele>180</ele>
        <time>2014-03-12T22:46:46+01:00</time>
      </trkpt>
      <trkpt lat="44.00181" lon="0.66907">
        <ele>172</ele>
        <time>2014-03-12T22:46:51+01:00</time>
      </trkpt>
      <trkpt lat="44.0002" lon="0.66925">
        <ele>170</ele>
        <time>2014-03-12T22:46:56+01:00</time>
      </trkpt>
      <trkpt lat="43.99464" lon="0.66461">
        <ele>166</ele>
        <time>2014-03-12T22:47:01+01:00</time>
      </trkpt>
      <trkpt lat="43.99403" lon="0.66392">
        <ele>158</ele>
        <time>2014-03-12T22:47:06+01:00</time>
      </trkpt>
      <trkpt lat="43.9939" lon="0.66135">
        <ele>135</ele>
        <time>2014-03-12T22:47:11+01:00</time>
      </trkpt>
      <trkpt lat="43.99187" lon="0.65972">
        <ele>126</ele>
        <time>2014-03-12T22:47:16+01:00</time>
      </trkpt>
      <trkpt lat="43.9881" lon="0.65929">
        <ele>112</ele>
        <time>2014-03-12T22:47:21+01:00</time>
      </trkpt>
      <trkpt lat="43.98798" lon="0.65706">
        <ele>105</ele>
        <time>2014-03-12T22:47:26+01:00</time>
      </trkpt>
      <trkpt lat="43.98723" lon="0.6556">
        <ele>109</ele>
        <time>2014-03-12T22:47:31+01:00</time>
      </trkpt>
      <trkpt lat="43.98779" lon="0.65457">
        <ele>109</ele>
        <time>2014-03-12T22:47:36+01:00</time>
      </trkpt>
      <trkpt lat="43.98501" lon="0.65148">
        <ele>121</ele>
        <time>2014-03-12T22:47:41+01:00</time>
      </trkpt>
      <trkpt lat="43.98211" lon="0.64856">
        <ele>146</ele>
        <time>2014-03-12T22:47:46+01:00</time>
      </trkpt>
      <trkpt lat="43.98026" lon="0.65131">
        <ele>171</ele>
        <time>2014-03-12T22:47:51+01:00</time>
      </trkpt>
      <trkpt lat="43.97494" lon="0.65242">
        <ele>176</ele>
        <time>2014-03-12T22:47:56+01:00</time>
      </trkpt>
      <trkpt lat="43.97309" lon="0.64942">
        <ele>143</ele>
        <time>2014-03-12T22:48:01+01:00</time>
      </trkpt>
      <trkpt lat="43.96877" lon="0.65113">
        <ele>176</ele>
        <time>2014-03-12T22:48:06+01:00</time>
      </trkpt>
      <trkpt lat="43.96667" lon="0.65045">
        <ele>170</ele>
        <time>2014-03-12T22:48:11+01:00</time>
      </trkpt>
      <trkpt lat="43.96352" lon="0.65139">
        <ele>181</ele>
        <time>2014-03-12T22:48:16+01:00</time>
      </trkpt>
      <trkpt lat="43.9616" lon="0.65079">
        <ele>192</ele>
        <time>2014-03-12T22:48:21+01:00</time>
      </trkpt>
      <trkpt lat="43.96012" lon="0.65011">
        <ele>197</ele>
        <time>2014-03-12T22:48:26+01:00</time>
      </trkpt>
      <trkpt lat="43.95845" lon="0.64719">
        <ele>211</ele>
        <time>2014-03-12T22:48:31+01:00</time>
      </trkpt>
      <trkpt lat="43.95524" lon="0.6459">
        <ele>202</ele>
        <time>2014-03-12T22:48:36+01:00</time>
      </trkpt>
      <trkpt lat="43.95468" lon="0.64496">
        <ele>198</ele>
        <time>2014-03-12T22:48:41+01:00</time>
      </trkpt>
      <trkpt lat="43.9519" lon="0.64487">
        <ele>197</ele>
        <time>2014-03-12T22:48:46+01:00</time>
      </trkpt>
      <trkpt lat="43.95073" lon="0.64453">
        <ele>185</ele>
        <time>2014-03-12T22:48:51+01:00</time>
      </trkpt>
      <trkpt lat="43.94844" lon="0.64264">
        <ele>174</ele>
        <time>2014-03-12T22:48:56+01:00</time>
      </trkpt>
      <trkpt lat="43.94689" lon="0.64238">
        <ele>190</ele>
        <time>2014-03-12T22:49:01+01:00</time>
      </trkpt>
      <trkpt lat="43.9456" lon="0.64101">
        <ele>193</ele>
        <time>2014-03-12T22:49:06+01:00</time>
      </trkpt>
      <trkpt lat="43.94486" lon="0.63809">
        <ele>189</ele>
        <time>2014-03-12T22:49:11+01:00</time>
      </trkpt>
      <trkpt lat="43.94597" lon="0.63105">
        <ele>195</ele>
        <time>2014-03-12T22:49:16+01:00</time>
      </trkpt>
      <trkpt lat="43.94164" lon="0.63157">
        <ele>145</ele>
        <time>2014-03-12T22:49:21+01:00</time>
      </trkpt>
      <trkpt lat="43.93905" lon="0.62976">
        <ele>116</ele>
        <time>2014-03-12T22:49:26+01:00</time>
      </trkpt>
      <trkpt lat="43.93818" lon="0.62925">
        <ele>119</ele>
        <time>2014-03-12T22:49:31+01:00</time>
      </trkpt>
      <trkpt lat="43.93849" lon="0.62539">
        <ele>118</ele>
        <time>2014-03-12T22:49:36+01:00</time>
      </trkpt>
      <trkpt lat="43.93398" lon="0.62427">
        <ele>182</ele>
        <time>2014-03-12T22:49:41+01:00</time>
      </trkpt>
    </trkseg>
  </trk>
</gpx>